sensor_id;sensor_type;location;lat;lon;timestamp;P1;durP1;ratioP1;P2;durP2;ratioP2
30233;SDS011;17046;52.074;4.748;2023-01-10T00:00:46;14.37;;;3.40;;
30233;SDS011;17046;52.074;4.748;2023-01-10T00:03:12;15.97;;;3.00;;
30233;SDS011;17046;52.074;4.748;2023-01-10T00:05:38;13.00;;;2.63;;
30233;SDS011;17046;52.074;4.748;2023-01-10T00:08:05;14.67;;;3.17;;
30233;SDS011;17046;52.074;4.748;2023-01-10T00:10:32;16.23;;;3.13;;
30233;SDS011;17046;52.074;4.748;2023-01-10T00:12:58;15.37;;;2.97;;
30233;SDS011;17046;52.074;4.748;2023-01-10T00:15:42;15.37;;;2.40;;
30233;SDS011;17046;52.074;4.748;2023-01-10T00:18:08;13.57;;;2.23;;
30233;SDS011;17046;52.074;4.748;2023-01-10T00:20:34;11.20;;;2.30;;
30233;SDS011;17046;52.074;4.748;2023-01-10T00:23:00;16.93;;;3.43;;
30233;SDS011;17046;52.074;4.748;2023-01-10T00:25:27;11.60;;;2.53;;
30233;SDS011;17046;52.074;4.748;2023-01-10T00:27:53;14.63;;;2.23;;
30233;SDS011;17046;52.074;4.748;2023-01-10T00:30:25;13.30;;;2.23;;
30233;SDS011;17046;52.074;4.748;2023-01-10T00:32:52;16.23;;;2.90;;
30233;SDS011;17046;52.074;4.748;2023-01-10T00:35:17;17.47;;;2.97;;
30233;SDS011;17046;52.074;4.748;2023-01-10T00:37:44;13.23;;;2.17;;
30233;SDS011;17046;52.074;4.748;2023-01-10T00:40:10;14.37;;;2.07;;
30233;SDS011;17046;52.074;4.748;2023-01-10T00:42:36;16.43;;;2.50;;
30233;SDS011;17046;52.074;4.748;2023-01-10T00:45:21;16.33;;;3.07;;
30233;SDS011;17046;52.074;4.748;2023-01-10T00:47:48;19.13;;;3.13;;
30233;SDS011;17046;52.074;4.748;2023-01-10T00:50:15;14.00;;;3.40;;
30233;SDS011;17046;52.074;4.748;2023-01-10T00:52:41;18.87;;;2.40;;
30233;SDS011;17046;52.074;4.748;2023-01-10T00:55:07;15.07;;;2.37;;
30233;SDS011;17046;52.074;4.748;2023-01-10T00:57:33;13.53;;;2.30;;
30233;SDS011;17046;52.074;4.748;2023-01-10T00:59:58;16.93;;;2.97;;
30233;SDS011;17046;52.074;4.748;2023-01-10T01:02:24;13.77;;;2.03;;
30233;SDS011;17046;52.074;4.748;2023-01-10T01:04:49;12.00;;;2.50;;
30233;SDS011;17046;52.074;4.748;2023-01-10T01:07:15;14.63;;;2.80;;
30233;SDS011;17046;52.074;4.748;2023-01-10T01:09:41;16.70;;;2.53;;
30233;SDS011;17046;52.074;4.748;2023-01-10T01:12:29;14.93;;;2.20;;
30233;SDS011;17046;52.074;4.748;2023-01-10T01:14:55;15.70;;;2.83;;
30233;SDS011;17046;52.074;4.748;2023-01-10T01:17:20;15.67;;;2.50;;
30233;SDS011;17046;52.074;4.748;2023-01-10T01:19:46;10.40;;;2.37;;
30233;SDS011;17046;52.074;4.748;2023-01-10T01:22:11;12.70;;;2.77;;
30233;SDS011;17046;52.074;4.748;2023-01-10T01:24:37;15.63;;;2.63;;
30233;SDS011;17046;52.074;4.748;2023-01-10T01:27:03;15.17;;;2.33;;
30233;SDS011;17046;52.074;4.748;2023-01-10T01:29:28;14.30;;;2.83;;
30233;SDS011;17046;52.074;4.748;2023-01-10T01:31:54;16.83;;;2.90;;
30233;SDS011;17046;52.074;4.748;2023-01-10T01:34:21;15.20;;;2.53;;
30233;SDS011;17046;52.074;4.748;2023-01-10T01:36:46;15.83;;;2.83;;
30233;SDS011;17046;52.074;4.748;2023-01-10T01:39:12;16.17;;;2.40;;
30233;SDS011;17046;52.074;4.748;2023-01-10T01:41:37;18.87;;;3.20;;
30233;SDS011;17046;52.074;4.748;2023-01-10T01:44:21;19.70;;;3.03;;
30233;SDS011;17046;52.074;4.748;2023-01-10T01:49:34;16.57;;;3.03;;
30233;SDS011;17046;52.074;4.748;2023-01-10T01:52:06;12.13;;;2.43;;
30233;SDS011;17046;52.074;4.748;2023-01-10T01:54:36;14.10;;;2.63;;
30233;SDS011;17046;52.074;4.748;2023-01-10T01:57:12;16.77;;;2.67;;
30233;SDS011;17046;52.074;4.748;2023-01-10T01:59:43;16.97;;;2.90;;
30233;SDS011;17046;52.074;4.748;2023-01-10T02:02:32;15.63;;;2.80;;
30233;SDS011;17046;52.074;4.748;2023-01-10T02:05:06;14.50;;;2.57;;
30233;SDS011;17046;52.074;4.748;2023-01-10T02:07:38;22.40;;;2.93;;
30233;SDS011;17046;52.074;4.748;2023-01-10T02:12:37;24.80;;;3.20;;
30233;SDS011;17046;52.074;4.748;2023-01-10T02:15:03;20.90;;;3.97;;
30233;SDS011;17046;52.074;4.748;2023-01-10T02:17:29;20.40;;;2.97;;
30233;SDS011;17046;52.074;4.748;2023-01-10T02:33:42;26.17;;;3.33;;
30233;SDS011;17046;52.074;4.748;2023-01-10T02:36:32;22.87;;;3.67;;
30233;SDS011;17046;52.074;4.748;2023-01-10T02:42:03;18.13;;;3.20;;
30233;SDS011;17046;52.074;4.748;2023-01-10T02:44:49;17.20;;;3.03;;
30233;SDS011;17046;52.074;4.748;2023-01-10T02:47:36;19.33;;;2.90;;
30233;SDS011;17046;52.074;4.748;2023-01-10T02:52:49;28.60;;;4.13;;
30233;SDS011;17046;52.074;4.748;2023-01-10T02:55:14;21.87;;;3.00;;
30233;SDS011;17046;52.074;4.748;2023-01-10T02:57:59;20.90;;;3.47;;
30233;SDS011;17046;52.074;4.748;2023-01-10T03:00:54;17.83;;;3.13;;
30233;SDS011;17046;52.074;4.748;2023-01-10T03:11:38;21.13;;;3.10;;
30233;SDS011;17046;52.074;4.748;2023-01-10T03:14:23;16.77;;;3.17;;
30233;SDS011;17046;52.074;4.748;2023-01-10T03:16:53;19.27;;;3.60;;
30233;SDS011;17046;52.074;4.748;2023-01-10T03:19:24;17.83;;;2.77;;
30233;SDS011;17046;52.074;4.748;2023-01-10T03:21:54;20.40;;;3.27;;
30233;SDS011;17046;52.074;4.748;2023-01-10T03:24:27;20.00;;;3.17;;
30233;SDS011;17046;52.074;4.748;2023-01-10T03:27:14;20.10;;;2.97;;
30233;SDS011;17046;52.074;4.748;2023-01-10T03:29:50;14.57;;;2.80;;
30233;SDS011;17046;52.074;4.748;2023-01-10T03:32:24;15.50;;;2.77;;
30233;SDS011;17046;52.074;4.748;2023-01-10T03:34:52;20.53;;;3.77;;
30233;SDS011;17046;52.074;4.748;2023-01-10T03:37:35;21.90;;;2.70;;
30233;SDS011;17046;52.074;4.748;2023-01-10T03:40:22;20.73;;;3.13;;
30233;SDS011;17046;52.074;4.748;2023-01-10T03:42:59;20.17;;;3.23;;
30233;SDS011;17046;52.074;4.748;2023-01-10T03:46:01;23.40;;;3.67;;
30233;SDS011;17046;52.074;4.748;2023-01-10T03:48:34;18.13;;;2.73;;
30233;SDS011;17046;52.074;4.748;2023-01-10T03:51:02;19.30;;;3.43;;
30233;SDS011;17046;52.074;4.748;2023-01-10T03:53:33;18.73;;;3.37;;
30233;SDS011;17046;52.074;4.748;2023-01-10T03:56:02;15.43;;;3.43;;
30233;SDS011;17046;52.074;4.748;2023-01-10T03:58:28;20.87;;;2.80;;
30233;SDS011;17046;52.074;4.748;2023-01-10T04:00:53;21.07;;;3.30;;
30233;SDS011;17046;52.074;4.748;2023-01-10T04:03:19;21.70;;;3.20;;
30233;SDS011;17046;52.074;4.748;2023-01-10T04:05:44;25.03;;;3.47;;
30233;SDS011;17046;52.074;4.748;2023-01-10T04:08:10;15.47;;;2.90;;
30233;SDS011;17046;52.074;4.748;2023-01-10T04:10:35;17.10;;;3.37;;
30233;SDS011;17046;52.074;4.748;2023-01-10T04:13:02;14.97;;;3.13;;
30233;SDS011;17046;52.074;4.748;2023-01-10T04:15:28;22.57;;;3.67;;
30233;SDS011;17046;52.074;4.748;2023-01-10T04:17:54;16.57;;;3.20;;
30233;SDS011;17046;52.074;4.748;2023-01-10T04:20:20;21.80;;;3.07;;
30233;SDS011;17046;52.074;4.748;2023-01-10T04:22:46;18.47;;;3.03;;
30233;SDS011;17046;52.074;4.748;2023-01-10T04:25:15;24.77;;;3.07;;
30233;SDS011;17046;52.074;4.748;2023-01-10T04:27:40;26.97;;;3.43;;
30233;SDS011;17046;52.074;4.748;2023-01-10T04:30:06;20.23;;;3.90;;
30233;SDS011;17046;52.074;4.748;2023-01-10T04:32:32;22.73;;;4.10;;
30233;SDS011;17046;52.074;4.748;2023-01-10T04:34:58;14.57;;;2.80;;
30233;SDS011;17046;52.074;4.748;2023-01-10T04:37:23;15.83;;;3.10;;
30233;SDS011;17046;52.074;4.748;2023-01-10T04:39:49;20.70;;;2.87;;
30233;SDS011;17046;52.074;4.748;2023-01-10T04:42:15;23.07;;;4.13;;
30233;SDS011;17046;52.074;4.748;2023-01-10T04:44:41;22.47;;;4.57;;
30233;SDS011;17046;52.074;4.748;2023-01-10T04:47:06;24.53;;;3.17;;
30233;SDS011;17046;52.074;4.748;2023-01-10T04:49:32;20.43;;;3.60;;
30233;SDS011;17046;52.074;4.748;2023-01-10T04:51:58;19.27;;;3.63;;
30233;SDS011;17046;52.074;4.748;2023-01-10T04:54:24;20.03;;;3.40;;
30233;SDS011;17046;52.074;4.748;2023-01-10T04:56:49;23.13;;;3.60;;
30233;SDS011;17046;52.074;4.748;2023-01-10T04:59:15;19.07;;;3.47;;
30233;SDS011;17046;52.074;4.748;2023-01-10T05:01:41;21.43;;;3.70;;
30233;SDS011;17046;52.074;4.748;2023-01-10T05:04:06;26.83;;;4.23;;
30233;SDS011;17046;52.074;4.748;2023-01-10T05:06:33;23.23;;;4.37;;
30233;SDS011;17046;52.074;4.748;2023-01-10T05:08:58;25.40;;;3.47;;
30233;SDS011;17046;52.074;4.748;2023-01-10T05:11:24;24.77;;;3.43;;
30233;SDS011;17046;52.074;4.748;2023-01-10T05:13:49;21.83;;;3.00;;
30233;SDS011;17046;52.074;4.748;2023-01-10T05:16:15;28.63;;;3.80;;
30233;SDS011;17046;52.074;4.748;2023-01-10T05:18:41;27.03;;;3.57;;
30233;SDS011;17046;52.074;4.748;2023-01-10T05:21:08;23.37;;;3.67;;
30233;SDS011;17046;52.074;4.748;2023-01-10T05:23:35;23.73;;;3.70;;
30233;SDS011;17046;52.074;4.748;2023-01-10T05:26:05;22.27;;;3.27;;
30233;SDS011;17046;52.074;4.748;2023-01-10T05:28:31;22.53;;;4.07;;
30233;SDS011;17046;52.074;4.748;2023-01-10T05:30:57;21.07;;;3.57;;
30233;SDS011;17046;52.074;4.748;2023-01-10T05:33:23;21.47;;;4.10;;
30233;SDS011;17046;52.074;4.748;2023-01-10T05:35:48;23.70;;;3.70;;
30233;SDS011;17046;52.074;4.748;2023-01-10T05:38:14;23.53;;;3.43;;
30233;SDS011;17046;52.074;4.748;2023-01-10T05:40:39;21.43;;;3.37;;
30233;SDS011;17046;52.074;4.748;2023-01-10T05:43:05;21.00;;;3.83;;
30233;SDS011;17046;52.074;4.748;2023-01-10T05:45:30;26.70;;;4.47;;
30233;SDS011;17046;52.074;4.748;2023-01-10T05:47:56;17.90;;;3.37;;
30233;SDS011;17046;52.074;4.748;2023-01-10T05:50:21;20.97;;;3.13;;
30233;SDS011;17046;52.074;4.748;2023-01-10T05:52:47;18.30;;;3.67;;
30233;SDS011;17046;52.074;4.748;2023-01-10T05:55:12;21.30;;;3.87;;
30233;SDS011;17046;52.074;4.748;2023-01-10T05:57:38;27.50;;;4.17;;
30233;SDS011;17046;52.074;4.748;2023-01-10T06:00:04;24.83;;;3.37;;
30233;SDS011;17046;52.074;4.748;2023-01-10T06:02:30;22.10;;;4.60;;
30233;SDS011;17046;52.074;4.748;2023-01-10T06:04:56;30.23;;;4.33;;
30233;SDS011;17046;52.074;4.748;2023-01-10T06:07:22;23.73;;;4.07;;
30233;SDS011;17046;52.074;4.748;2023-01-10T06:09:48;27.83;;;3.93;;
30233;SDS011;17046;52.074;4.748;2023-01-10T06:12:15;20.60;;;3.60;;
30233;SDS011;17046;52.074;4.748;2023-01-10T06:14:43;28.87;;;4.70;;
30233;SDS011;17046;52.074;4.748;2023-01-10T06:17:09;24.20;;;3.97;;
30233;SDS011;17046;52.074;4.748;2023-01-10T06:19:34;26.60;;;3.77;;
30233;SDS011;17046;52.074;4.748;2023-01-10T06:22:01;21.30;;;3.57;;
30233;SDS011;17046;52.074;4.748;2023-01-10T06:24:27;25.27;;;4.23;;
30233;SDS011;17046;52.074;4.748;2023-01-10T06:26:53;25.53;;;4.37;;
30233;SDS011;17046;52.074;4.748;2023-01-10T06:29:18;28.43;;;4.17;;
30233;SDS011;17046;52.074;4.748;2023-01-10T06:31:44;34.87;;;4.83;;
30233;SDS011;17046;52.074;4.748;2023-01-10T06:34:09;25.77;;;4.80;;
30233;SDS011;17046;52.074;4.748;2023-01-10T06:36:35;28.40;;;9.03;;
30233;SDS011;17046;52.074;4.748;2023-01-10T06:39:00;25.47;;;5.50;;
30233;SDS011;17046;52.074;4.748;2023-01-10T06:41:26;27.60;;;8.13;;
30233;SDS011;17046;52.074;4.748;2023-01-10T06:43:51;24.23;;;5.40;;
30233;SDS011;17046;52.074;4.748;2023-01-10T06:46:17;31.20;;;5.83;;
30233;SDS011;17046;52.074;4.748;2023-01-10T06:48:44;25.30;;;4.67;;
30233;SDS011;17046;52.074;4.748;2023-01-10T06:51:10;25.80;;;3.70;;
30233;SDS011;17046;52.074;4.748;2023-01-10T06:53:37;25.53;;;4.43;;
30233;SDS011;17046;52.074;4.748;2023-01-10T06:56:03;28.77;;;7.23;;
30233;SDS011;17046;52.074;4.748;2023-01-10T06:58:30;29.60;;;6.93;;
30233;SDS011;17046;52.074;4.748;2023-01-10T07:00:56;29.43;;;9.37;;
30233;SDS011;17046;52.074;4.748;2023-01-10T07:03:22;30.23;;;12.57;;
30233;SDS011;17046;52.074;4.748;2023-01-10T07:05:47;23.77;;;8.33;;
30233;SDS011;17046;52.074;4.748;2023-01-10T07:08:13;18.30;;;4.67;;
30233;SDS011;17046;52.074;4.748;2023-01-10T07:10:39;25.67;;;4.83;;
30233;SDS011;17046;52.074;4.748;2023-01-10T07:13:06;31.13;;;4.50;;
30233;SDS011;17046;52.074;4.748;2023-01-10T07:15:31;26.03;;;4.37;;
30233;SDS011;17046;52.074;4.748;2023-01-10T07:17:57;26.30;;;5.00;;
30233;SDS011;17046;52.074;4.748;2023-01-10T07:20:23;21.30;;;3.50;;
30233;SDS011;17046;52.074;4.748;2023-01-10T07:22:53;22.43;;;4.13;;
30233;SDS011;17046;52.074;4.748;2023-01-10T07:25:23;22.57;;;3.73;;
30233;SDS011;17046;52.074;4.748;2023-01-10T07:27:50;22.40;;;3.67;;
30233;SDS011;17046;52.074;4.748;2023-01-10T07:30:16;28.13;;;4.57;;
30233;SDS011;17046;52.074;4.748;2023-01-10T07:32:41;21.53;;;3.90;;
30233;SDS011;17046;52.074;4.748;2023-01-10T07:35:07;22.30;;;3.77;;
30233;SDS011;17046;52.074;4.748;2023-01-10T07:37:33;21.07;;;3.73;;
30233;SDS011;17046;52.074;4.748;2023-01-10T07:39:58;24.93;;;3.97;;
30233;SDS011;17046;52.074;4.748;2023-01-10T07:42:24;25.73;;;4.37;;
30233;SDS011;17046;52.074;4.748;2023-01-10T07:44:50;27.93;;;4.17;;
30233;SDS011;17046;52.074;4.748;2023-01-10T07:47:15;27.77;;;4.37;;
30233;SDS011;17046;52.074;4.748;2023-01-10T07:49:41;23.60;;;4.67;;
30233;SDS011;17046;52.074;4.748;2023-01-10T07:52:06;22.67;;;4.50;;
30233;SDS011;17046;52.074;4.748;2023-01-10T07:54:33;26.00;;;4.13;;
30233;SDS011;17046;52.074;4.748;2023-01-10T07:56:59;18.40;;;3.83;;
30233;SDS011;17046;52.074;4.748;2023-01-10T07:59:25;24.90;;;4.57;;
30233;SDS011;17046;52.074;4.748;2023-01-10T08:01:51;20.23;;;4.67;;
30233;SDS011;17046;52.074;4.748;2023-01-10T08:04:18;21.63;;;4.33;;
30233;SDS011;17046;52.074;4.748;2023-01-10T08:06:44;25.37;;;4.13;;
30233;SDS011;17046;52.074;4.748;2023-01-10T08:09:09;19.43;;;4.90;;
30233;SDS011;17046;52.074;4.748;2023-01-10T08:11:35;23.93;;;4.13;;
30233;SDS011;17046;52.074;4.748;2023-01-10T08:14:00;21.07;;;4.90;;
30233;SDS011;17046;52.074;4.748;2023-01-10T08:16:26;29.60;;;4.23;;
30233;SDS011;17046;52.074;4.748;2023-01-10T08:18:52;29.23;;;4.97;;
30233;SDS011;17046;52.074;4.748;2023-01-10T08:21:17;20.77;;;4.40;;
30233;SDS011;17046;52.074;4.748;2023-01-10T08:23:43;24.00;;;4.60;;
30233;SDS011;17046;52.074;4.748;2023-01-10T08:26:08;26.57;;;5.00;;
30233;SDS011;17046;52.074;4.748;2023-01-10T08:28:34;25.50;;;4.93;;
30233;SDS011;17046;52.074;4.748;2023-01-10T08:31:08;25.07;;;4.90;;
30233;SDS011;17046;52.074;4.748;2023-01-10T08:33:38;31.17;;;5.53;;
30233;SDS011;17046;52.074;4.748;2023-01-10T08:36:04;21.33;;;4.93;;
30233;SDS011;17046;52.074;4.748;2023-01-10T08:38:29;21.53;;;5.30;;
30233;SDS011;17046;52.074;4.748;2023-01-10T08:40:55;23.93;;;5.03;;
30233;SDS011;17046;52.074;4.748;2023-01-10T08:43:22;25.07;;;5.87;;
30233;SDS011;17046;52.074;4.748;2023-01-10T08:45:47;25.37;;;5.93;;
30233;SDS011;17046;52.074;4.748;2023-01-10T08:48:13;24.63;;;5.47;;
30233;SDS011;17046;52.074;4.748;2023-01-10T08:50:39;31.13;;;6.30;;
30233;SDS011;17046;52.074;4.748;2023-01-10T08:53:05;22.90;;;5.10;;
30233;SDS011;17046;52.074;4.748;2023-01-10T08:55:31;17.97;;;4.73;;
30233;SDS011;17046;52.074;4.748;2023-01-10T08:57:59;23.57;;;4.37;;
30233;SDS011;17046;52.074;4.748;2023-01-10T09:00:25;29.57;;;5.00;;
30233;SDS011;17046;52.074;4.748;2023-01-10T09:02:51;29.00;;;5.57;;
30233;SDS011;17046;52.074;4.748;2023-01-10T09:05:16;29.37;;;5.50;;
30233;SDS011;17046;52.074;4.748;2023-01-10T09:07:42;23.67;;;4.67;;
30233;SDS011;17046;52.074;4.748;2023-01-10T09:10:08;23.67;;;5.07;;
30233;SDS011;17046;52.074;4.748;2023-01-10T09:12:34;28.37;;;7.30;;
30233;SDS011;17046;52.074;4.748;2023-01-10T09:15:18;26.50;;;5.50;;
30233;SDS011;17046;52.074;4.748;2023-01-10T09:17:45;26.17;;;5.10;;
30233;SDS011;17046;52.074;4.748;2023-01-10T09:20:10;21.50;;;4.90;;
30233;SDS011;17046;52.074;4.748;2023-01-10T09:22:36;16.17;;;5.37;;
30233;SDS011;17046;52.074;4.748;2023-01-10T09:25:02;24.10;;;4.80;;
30233;SDS011;17046;52.074;4.748;2023-01-10T09:27:28;28.00;;;4.97;;
30233;SDS011;17046;52.074;4.748;2023-01-10T09:29:54;30.93;;;5.73;;
30233;SDS011;17046;52.074;4.748;2023-01-10T09:32:20;26.70;;;5.30;;
30233;SDS011;17046;52.074;4.748;2023-01-10T09:34:45;31.60;;;5.53;;
30233;SDS011;17046;52.074;4.748;2023-01-10T09:37:11;24.60;;;5.03;;
30233;SDS011;17046;52.074;4.748;2023-01-10T09:39:36;20.17;;;5.30;;
30233;SDS011;17046;52.074;4.748;2023-01-10T09:42:09;26.27;;;5.17;;
30233;SDS011;17046;52.074;4.748;2023-01-10T09:44:48;33.87;;;5.40;;
30233;SDS011;17046;52.074;4.748;2023-01-10T09:53:20;19.63;;;5.10;;
30233;SDS011;17046;52.074;4.748;2023-01-10T09:55:51;26.87;;;4.87;;
30233;SDS011;17046;52.074;4.748;2023-01-10T09:58:19;22.83;;;4.70;;
30233;SDS011;17046;52.074;4.748;2023-01-10T10:00:53;23.20;;;4.17;;
30233;SDS011;17046;52.074;4.748;2023-01-10T10:03:27;16.83;;;4.30;;
30233;SDS011;17046;52.074;4.748;2023-01-10T10:05:59;26.13;;;5.23;;
30233;SDS011;17046;52.074;4.748;2023-01-10T10:08:24;25.80;;;4.23;;
30233;SDS011;17046;52.074;4.748;2023-01-10T10:11:03;25.83;;;5.07;;
30233;SDS011;17046;52.074;4.748;2023-01-10T10:27:01;19.43;;;4.80;;
30233;SDS011;17046;52.074;4.748;2023-01-10T10:35:17;26.93;;;5.20;;
30233;SDS011;17046;52.074;4.748;2023-01-10T10:37:49;25.47;;;4.47;;
30233;SDS011;17046;52.074;4.748;2023-01-10T10:40:18;28.93;;;4.77;;
30233;SDS011;17046;52.074;4.748;2023-01-10T10:42:47;19.40;;;4.30;;
30233;SDS011;17046;52.074;4.748;2023-01-10T10:45:21;28.90;;;4.33;;
30233;SDS011;17046;52.074;4.748;2023-01-10T10:48:12;22.60;;;4.13;;
30233;SDS011;17046;52.074;4.748;2023-01-10T10:53:30;19.70;;;3.90;;
30233;SDS011;17046;52.074;4.748;2023-01-10T10:55:57;25.10;;;3.90;;
30233;SDS011;17046;52.074;4.748;2023-01-10T10:58:25;23.53;;;4.40;;
30233;SDS011;17046;52.074;4.748;2023-01-10T11:00:54;23.53;;;4.47;;
30233;SDS011;17046;52.074;4.748;2023-01-10T11:05:59;19.87;;;4.57;;
30233;SDS011;17046;52.074;4.748;2023-01-10T11:08:27;19.57;;;3.60;;
30233;SDS011;17046;52.074;4.748;2023-01-10T11:10:55;16.73;;;3.87;;
30233;SDS011;17046;52.074;4.748;2023-01-10T11:15:56;16.90;;;4.13;;
30233;SDS011;17046;52.074;4.748;2023-01-10T11:18:24;23.10;;;4.20;;
30233;SDS011;17046;52.074;4.748;2023-01-10T11:25:55;15.60;;;3.87;;
30233;SDS011;17046;52.074;4.748;2023-01-10T11:28:23;21.30;;;4.87;;
30233;SDS011;17046;52.074;4.748;2023-01-10T11:30:52;21.80;;;4.07;;
30233;SDS011;17046;52.074;4.748;2023-01-10T11:33:20;23.47;;;4.40;;
30233;SDS011;17046;52.074;4.748;2023-01-10T11:35:55;22.07;;;4.70;;
30233;SDS011;17046;52.074;4.748;2023-01-10T11:38:25;21.67;;;4.40;;
30233;SDS011;17046;52.074;4.748;2023-01-10T11:41:01;17.57;;;3.83;;
30233;SDS011;17046;52.074;4.748;2023-01-10T11:43:39;21.57;;;5.20;;
30233;SDS011;17046;52.074;4.748;2023-01-10T11:46:13;20.80;;;4.40;;
30233;SDS011;17046;52.074;4.748;2023-01-10T11:48:51;19.60;;;4.90;;
30233;SDS011;17046;52.074;4.748;2023-01-10T11:51:37;21.13;;;4.80;;
30233;SDS011;17046;52.074;4.748;2023-01-10T11:54:19;19.83;;;4.33;;
30233;SDS011;17046;52.074;4.748;2023-01-10T11:56:53;23.70;;;3.70;;
30233;SDS011;17046;52.074;4.748;2023-01-10T11:59:21;22.43;;;4.00;;
30233;SDS011;17046;52.074;4.748;2023-01-10T12:04:40;21.03;;;4.23;;
30233;SDS011;17046;52.074;4.748;2023-01-10T12:07:11;21.13;;;4.23;;
30233;SDS011;17046;52.074;4.748;2023-01-10T12:09:40;21.07;;;4.17;;
30233;SDS011;17046;52.074;4.748;2023-01-10T12:14:58;20.97;;;3.90;;
30233;SDS011;17046;52.074;4.748;2023-01-10T12:17:45;12.53;;;3.70;;
30233;SDS011;17046;52.074;4.748;2023-01-10T12:20:12;16.17;;;4.27;;
30233;SDS011;17046;52.074;4.748;2023-01-10T12:22:40;22.83;;;4.07;;
30233;SDS011;17046;52.074;4.748;2023-01-10T12:25:19;22.27;;;3.60;;
30233;SDS011;17046;52.074;4.748;2023-01-10T12:27:54;22.63;;;3.97;;
30233;SDS011;17046;52.074;4.748;2023-01-10T12:30:27;20.00;;;3.67;;
30233;SDS011;17046;52.074;4.748;2023-01-10T12:33:09;20.77;;;3.67;;
30233;SDS011;17046;52.074;4.748;2023-01-10T12:35:52;16.20;;;4.13;;
30233;SDS011;17046;52.074;4.748;2023-01-10T12:38:33;16.10;;;3.70;;
30233;SDS011;17046;52.074;4.748;2023-01-10T12:41:27;16.37;;;3.10;;
30233;SDS011;17046;52.074;4.748;2023-01-10T12:47:05;18.40;;;3.23;;
30233;SDS011;17046;52.074;4.748;2023-01-10T12:49:35;21.70;;;3.73;;
30233;SDS011;17046;52.074;4.748;2023-01-10T12:52:13;19.47;;;3.63;;
30233;SDS011;17046;52.074;4.748;2023-01-10T12:55:00;12.73;;;2.77;;
30233;SDS011;17046;52.074;4.748;2023-01-10T12:57:29;19.23;;;3.73;;
30233;SDS011;17046;52.074;4.748;2023-01-10T13:00:00;15.23;;;3.00;;
30233;SDS011;17046;52.074;4.748;2023-01-10T13:02:36;21.07;;;3.87;;
30233;SDS011;17046;52.074;4.748;2023-01-10T13:05:05;14.50;;;3.50;;
30233;SDS011;17046;52.074;4.748;2023-01-10T13:07:38;13.70;;;3.53;;
30233;SDS011;17046;52.074;4.748;2023-01-10T13:10:04;22.63;;;4.17;;
30233;SDS011;17046;52.074;4.748;2023-01-10T13:12:38;18.23;;;3.73;;
30233;SDS011;17046;52.074;4.748;2023-01-10T13:15:49;19.07;;;4.50;;
30233;SDS011;17046;52.074;4.748;2023-01-10T13:20:26;18.17;;;3.40;;
30233;SDS011;17046;52.074;4.748;2023-01-10T13:23:10;22.57;;;3.40;;
30233;SDS011;17046;52.074;4.748;2023-01-10T13:25:55;22.33;;;3.53;;
30233;SDS011;17046;52.074;4.748;2023-01-10T13:28:23;18.87;;;3.70;;
30233;SDS011;17046;52.074;4.748;2023-01-10T13:30:57;17.93;;;3.70;;
30233;SDS011;17046;52.074;4.748;2023-01-10T13:33:32;22.43;;;3.97;;
30233;SDS011;17046;52.074;4.748;2023-01-10T13:36:08;24.97;;;5.27;;
30233;SDS011;17046;52.074;4.748;2023-01-10T13:38:49;16.60;;;3.97;;
30233;SDS011;17046;52.074;4.748;2023-01-10T13:41:18;16.10;;;3.60;;
30233;SDS011;17046;52.074;4.748;2023-01-10T13:46:41;17.00;;;3.20;;
30233;SDS011;17046;52.074;4.748;2023-01-10T13:51:38;26.63;;;3.83;;
30233;SDS011;17046;52.074;4.748;2023-01-10T13:54:24;19.87;;;4.10;;
30233;SDS011;17046;52.074;4.748;2023-01-10T13:56:51;19.73;;;3.60;;
30233;SDS011;17046;52.074;4.748;2023-01-10T14:02:43;21.07;;;4.37;;
30233;SDS011;17046;52.074;4.748;2023-01-10T14:05:06;24.07;;;4.40;;
30233;SDS011;17046;52.074;4.748;2023-01-10T14:10:27;20.27;;;3.83;;
30233;SDS011;17046;52.074;4.748;2023-01-10T14:15:36;18.97;;;3.37;;
30233;SDS011;17046;52.074;4.748;2023-01-10T14:18:05;17.67;;;3.50;;
30233;SDS011;17046;52.074;4.748;2023-01-10T14:20:40;21.03;;;3.57;;
30233;SDS011;17046;52.074;4.748;2023-01-10T14:23:07;17.33;;;3.40;;
30233;SDS011;17046;52.074;4.748;2023-01-10T14:25:39;24.47;;;4.30;;
30233;SDS011;17046;52.074;4.748;2023-01-10T14:28:16;23.17;;;3.73;;
30233;SDS011;17046;52.074;4.748;2023-01-10T14:31:02;19.17;;;4.27;;
30233;SDS011;17046;52.074;4.748;2023-01-10T14:33:33;23.17;;;4.43;;
30233;SDS011;17046;52.074;4.748;2023-01-10T14:36:06;23.47;;;3.87;;
30233;SDS011;17046;52.074;4.748;2023-01-10T14:38:37;23.83;;;3.80;;
30233;SDS011;17046;52.074;4.748;2023-01-10T14:41:11;15.47;;;3.83;;
30233;SDS011;17046;52.074;4.748;2023-01-10T14:43:47;23.07;;;4.47;;
30233;SDS011;17046;52.074;4.748;2023-01-10T14:46:51;18.70;;;4.10;;
30233;SDS011;17046;52.074;4.748;2023-01-10T14:51:46;18.17;;;3.60;;
30233;SDS011;17046;52.074;4.748;2023-01-10T14:54:15;20.83;;;4.20;;
30233;SDS011;17046;52.074;4.748;2023-01-10T14:56:49;20.87;;;4.17;;
30233;SDS011;17046;52.074;4.748;2023-01-10T15:01:42;18.90;;;4.43;;
30233;SDS011;17046;52.074;4.748;2023-01-10T15:04:13;16.20;;;3.97;;
30233;SDS011;17046;52.074;4.748;2023-01-10T15:06:56;18.10;;;4.07;;
30233;SDS011;17046;52.074;4.748;2023-01-10T15:09:33;20.40;;;3.73;;
30233;SDS011;17046;52.074;4.748;2023-01-10T15:12:00;22.60;;;3.97;;
30233;SDS011;17046;52.074;4.748;2023-01-10T15:14:27;14.43;;;4.07;;
30233;SDS011;17046;52.074;4.748;2023-01-10T15:16:58;23.73;;;4.27;;
30233;SDS011;17046;52.074;4.748;2023-01-10T15:19:28;25.87;;;4.20;;
30233;SDS011;17046;52.074;4.748;2023-01-10T15:21:57;17.77;;;3.67;;
30233;SDS011;17046;52.074;4.748;2023-01-10T15:24:33;28.30;;;3.80;;
30233;SDS011;17046;52.074;4.748;2023-01-10T15:27:01;16.77;;;3.67;;
30233;SDS011;17046;52.074;4.748;2023-01-10T15:29:29;22.03;;;4.27;;
30233;SDS011;17046;52.074;4.748;2023-01-10T15:32:02;23.07;;;4.40;;
30233;SDS011;17046;52.074;4.748;2023-01-10T15:34:33;16.97;;;4.00;;
30233;SDS011;17046;52.074;4.748;2023-01-10T15:37:00;13.57;;;3.70;;
30233;SDS011;17046;52.074;4.748;2023-01-10T15:39:30;15.43;;;3.80;;
30233;SDS011;17046;52.074;4.748;2023-01-10T15:42:00;15.67;;;3.50;;
30233;SDS011;17046;52.074;4.748;2023-01-10T15:46:58;13.43;;;3.50;;
30233;SDS011;17046;52.074;4.748;2023-01-10T15:49:23;17.13;;;3.90;;
30233;SDS011;17046;52.074;4.748;2023-01-10T15:51:49;16.35;;;4.07;;
30233;SDS011;17046;52.074;4.748;2023-01-10T15:56:47;12.87;;;3.10;;
30233;SDS011;17046;52.074;4.748;2023-01-10T16:04:48;13.23;;;3.20;;
30233;SDS011;17046;52.074;4.748;2023-01-10T16:07:29;11.70;;;3.43;;
30233;SDS011;17046;52.074;4.748;2023-01-10T16:10:03;9.53;;;2.77;;
30233;SDS011;17046;52.074;4.748;2023-01-10T16:12:46;10.67;;;3.20;;
30233;SDS011;17046;52.074;4.748;2023-01-10T16:15:31;12.90;;;3.87;;
30233;SDS011;17046;52.074;4.748;2023-01-10T16:18:06;12.93;;;3.03;;
30233;SDS011;17046;52.074;4.748;2023-01-10T16:20:39;12.07;;;3.40;;
30233;SDS011;17046;52.074;4.748;2023-01-10T16:23:14;9.17;;;3.20;;
30233;SDS011;17046;52.074;4.748;2023-01-10T16:25:46;13.30;;;5.47;;
30233;SDS011;17046;52.074;4.748;2023-01-10T16:28:15;9.53;;;3.10;;
30233;SDS011;17046;52.074;4.748;2023-01-10T16:30:42;7.73;;;3.47;;
30233;SDS011;17046;52.074;4.748;2023-01-10T16:35:47;9.17;;;3.60;;
30233;SDS011;17046;52.074;4.748;2023-01-10T16:38:14;11.27;;;3.70;;
30233;SDS011;17046;52.074;4.748;2023-01-10T16:40:42;8.60;;;3.77;;
30233;SDS011;17046;52.074;4.748;2023-01-10T16:43:11;4.83;;;3.37;;
30233;SDS011;17046;52.074;4.748;2023-01-10T16:45:43;8.27;;;3.63;;